Terminal Aerodrome Forecast
Issued by NWS Topeka, KS

Current Version | Previous Version | Text Only | Print | Product List | Glossary On
Versions: 1 2 3 4 5 6 7 8 9 10 11 12 13 14 15 16 17 18 19 20
000
FTUS43 KTOP 211500 AAB
TAFTOP
TAF AMD
KTOP 211540Z 2116/2212 18011KT 6SM -DZ BR OVC008
      TEMPO 2119/2123 4SM -DZ BR SCT008 OVC012
     FM212300 17012KT 3SM -DZ BR OVC014
     FM220900 18010KT 3SM -RA BR OVC019=

USA.gov is the U.S. government's official web portal to all federal, state and local government web resources and services.